Time;durP1;ratioP1;P1;durP2;ratioP2;P2;SDS_P1;SDS_P2;PMS_P1;PMS_P2;Temp;Humidity;BMP_temperature;BMP_pressure;BME280_temperature;BME280_humidity;BME280_pressure;Samples;Min_cycle;Max_cycle;Signal;HPM_P1;HPM_P2
2023/09/28 00:02:08;;;;;;;7.13;4.90;;;;;;;15.91;100.00;98179.00;5134376;27;20293;-72
2023/09/28 00:04:34;;;;;;;7.03;5.27;;;;;;;15.88;100.00;98185.69;5134606;27;20233;-72
2023/09/28 00:07:00;;;;;;;6.87;5.50;;;;;;;15.82;100.00;98191.22;5134446;27;20202;-72
2023/09/28 00:09:26;;;;;;;7.93;4.90;;;;;;;15.82;100.00;98194.72;5133812;27;20688;-72
2023/09/28 00:11:52;;;;;;;7.97;5.27;;;;;;;15.75;100.00;98190.63;5134540;28;20198;-72
2023/09/28 00:14:19;;;;;;;7.70;5.40;;;;;;;15.86;100.00;98190.50;5134445;28;20202;-72
2023/09/28 00:16:44;;;;;;;5.50;5.00;;;;;;;15.82;100.00;98192.06;5134070;28;20711;-72
2023/09/28 00:19:11;;;;;;;6.87;5.30;;;;;;;15.77;100.00;98193.84;5134391;28;20218;-72
2023/09/28 00:21:37;;;;;;;7.07;5.07;;;;;;;15.86;100.00;98198.53;5134482;28;20203;-72
2023/09/28 00:24:03;;;;;;;5.80;5.17;;;;;;;15.77;100.00;98197.34;5134103;28;20727;-72
2023/09/28 00:26:30;;;;;;;6.07;4.90;;;;;;;15.69;100.00;98200.44;5133858;28;20657;-72
2023/09/28 00:28:55;;;;;;;6.03;4.90;;;;;;;15.67;100.00;98199.06;5134056;28;20613;-72
2023/09/28 00:31:22;;;;;;;6.87;5.27;;;;;;;15.62;100.00;98201.69;5134178;28;20215;-72
2023/09/28 00:33:47;;;;;;;5.57;5.07;;;;;;;15.52;100.00;98202.34;5134073;28;20630;-72
2023/09/28 00:36:13;;;;;;;5.87;5.23;;;;;;;15.51;100.00;98199.94;5134182;28;20241;-72
2023/09/28 00:38:39;;;;;;;5.40;4.90;;;;;;;15.47;100.00;98196.91;5134090;28;20228;-72
2023/09/28 00:41:05;;;;;;;7.20;4.90;;;;;;;15.39;100.00;98200.03;5134007;28;20199;-72
2023/09/28 00:43:30;;;;;;;5.73;5.13;;;;;;;15.35;100.00;98211.47;5134224;28;20229;-72
2023/09/28 00:45:57;;;;;;;5.90;5.00;;;;;;;15.23;100.00;98213.38;5134209;28;20680;-72
2023/09/28 00:48:22;;;;;;;7.77;4.60;;;;;;;15.30;100.00;98217.56;5133834;28;20592;-72
2023/09/28 00:50:49;;;;;;;5.60;4.50;;;;;;;15.30;100.00;98214.88;5134202;28;20206;-72
2023/09/28 00:53:14;;;;;;;4.83;4.40;;;;;;;15.25;100.00;98217.44;5134162;28;20209;-72
2023/09/28 00:55:41;;;;;;;6.20;4.77;;;;;;;15.23;100.00;98214.22;5134002;28;20214;-72
2023/09/28 00:58:08;;;;;;;4.90;4.13;;;;;;;15.14;100.00;98207.66;5133980;28;20280;-72
2023/09/28 01:00:34;;;;;;;4.83;4.27;;;;;;;15.20;100.00;98212.00;5133949;28;20202;-72
2023/09/28 01:03:05;;;;;;;5.87;4.77;;;;;;;15.26;100.00;98213.75;5134076;28;20247;-72
2023/09/28 01:05:33;;;;;;;5.63;4.20;;;;;;;15.22;100.00;98207.25;5134010;28;20186;-72
2023/09/28 01:08:15;;;;;;;7.17;4.80;;;;;;;15.31;100.00;98205.78;5133656;28;20230;-72
2023/09/28 01:10:42;;;;;;;7.20;4.23;;;;;;;15.29;100.00;98207.06;5134897;28;20193;-72
2023/09/28 01:13:11;;;;;;;5.90;4.77;;;;;;;15.32;100.00;98207.38;5134047;28;20255;-72
2023/09/28 01:15:46;;;;;;;4.27;3.87;;;;;;;15.27;100.00;98210.00;5133530;28;20681;-72
2023/09/28 01:18:15;;;;;;;4.87;4.03;;;;;;;15.36;100.00;98202.38;5133898;28;20233;-72
2023/09/28 01:20:43;;;;;;;7.70;4.33;;;;;;;15.22;100.00;98220.63;5134480;27;20297;-72
2023/09/28 01:23:08;;;;;;;4.63;4.23;;;;;;;15.17;100.00;98209.84;5137354;27;20232;-72
2023/09/28 01:25:35;;;;;;;4.60;4.10;;;;;;;15.10;100.00;98219.91;5137612;27;20202;-72
2023/09/28 01:28:00;;;;;;;4.70;4.30;;;;;;;15.07;100.00;98214.22;5137490;27;20584;-72
2023/09/28 01:30:27;;;;;;;6.60;4.47;;;;;;;15.07;100.00;98212.34;5137521;27;20209;-72
2023/09/28 01:32:53;;;;;;;6.47;4.20;;;;;;;15.07;100.00;98209.66;5137538;27;20206;-72
2023/09/28 01:35:20;;;;;;;4.80;4.30;;;;;;;15.15;100.00;98219.19;5137355;27;20732;-72
2023/09/28 01:37:48;;;;;;;5.00;3.87;;;;;;;15.13;100.00;98224.78;5137154;27;20234;-72
2023/09/28 01:40:15;;;;;;;4.80;4.33;;;;;;;15.03;100.00;98210.41;5137379;27;20203;-72
2023/09/28 01:42:41;;;;;;;6.53;4.40;;;;;;;15.08;100.00;98208.63;5137022;27;20207;-72
2023/09/28 01:45:07;;;;;;;4.40;4.00;;;;;;;15.02;100.00;98208.78;5137269;27;20211;-72
2023/09/28 01:47:33;;;;;;;4.57;4.17;;;;;;;15.07;100.00;98209.66;5137129;27;20215;-72
2023/09/28 01:50:03;;;;;;;5.00;3.93;;;;;;;15.06;100.00;98207.25;5137106;27;20202;-72
2023/09/28 01:52:28;;;;;;;5.80;3.90;;;;;;;15.10;100.00;98205.72;5136831;27;20213;-72
2023/09/28 01:54:54;;;;;;;4.90;4.40;;;;;;;15.10;100.00;98206.50;5137055;27;20206;-72
2023/09/28 01:57:21;;;;;;;7.50;4.07;;;;;;;15.06;100.00;98210.72;5136730;27;20234;-72
2023/09/28 01:59:47;;;;;;;5.00;3.90;;;;;;;15.06;100.00;98208.03;5136958;27;20202;-72
2023/09/28 02:02:15;;;;;;;5.30;4.00;;;;;;;15.10;100.00;98209.19;5136952;27;20665;-72
2023/09/28 02:04:40;;;;;;;4.80;4.20;;;;;;;15.04;100.00;98207.50;5136823;27;20210;-72
2023/09/28 02:07:07;;;;;;;4.47;3.90;;;;;;;15.07;100.00;98201.63;5136778;27;20285;-72
2023/09/28 02:09:33;;;;;;;3.97;3.60;;;;;;;15.12;100.00;98209.78;5136765;27;20203;-72
2023/09/28 02:11:59;;;;;;;4.47;3.70;;;;;;;15.08;100.00;98211.31;5136826;27;20259;-72
2023/09/28 02:14:25;;;;;;;4.73;4.00;;;;;;;15.06;100.00;98200.00;5136403;27;20206;-72
2023/09/28 02:16:52;;;;;;;4.70;3.70;;;;;;;15.18;100.00;98200.75;5136541;27;20225;-72
2023/09/28 02:19:17;;;;;;;4.33;3.93;;;;;;;15.11;100.00;98196.63;5136218;27;20226;-72
2023/09/28 02:21:44;;;;;;;5.60;3.90;;;;;;;15.13;100.00;98197.16;5136912;27;20289;-72
2023/09/28 02:24:11;;;;;;;6.23;4.17;;;;;;;15.15;100.00;98211.94;5136132;27;20564;-72
2023/09/28 02:26:37;;;;;;;4.10;3.70;;;;;;;15.13;100.00;98213.25;5136187;27;20212;-72
2023/09/28 02:29:02;;;;;;;5.40;4.50;;;;;;;15.15;100.00;98211.94;5136318;27;20218;-72
2023/09/28 02:31:29;;;;;;;4.70;3.77;;;;;;;15.15;100.00;98214.63;5135952;27;20221;-72
2023/09/28 02:33:55;;;;;;;5.80;3.83;;;;;;;15.15;100.00;98221.84;5135473;27;20214;-72
2023/09/28 02:36:22;;;;;;;5.03;4.20;;;;;;;15.16;100.00;98218.13;5136013;27;20281;-72
2023/09/28 02:38:47;;;;;;;4.07;3.57;;;;;;;15.03;100.00;98215.75;5136069;27;20227;-72
2023/09/28 02:41:21;;;;;;;4.87;3.90;;;;;;;14.94;100.00;98215.38;5136158;27;20208;-72
2023/09/28 02:43:47;;;;;;;4.23;3.80;;;;;;;14.99;100.00;98223.47;5135856;27;20646;-72
2023/09/28 02:46:13;;;;;;;5.03;4.00;;;;;;;15.06;100.00;98228.66;5135973;27;20263;-72
2023/09/28 02:48:39;;;;;;;4.33;3.93;;;;;;;14.96;100.00;98226.63;5135884;27;20226;-72
2023/09/28 02:51:07;;;;;;;4.73;4.07;;;;;;;14.94;100.00;98226.06;5135955;27;20206;-72
2023/09/28 02:53:35;;;;;;;4.43;3.90;;;;;;;14.88;100.00;98231.56;5135880;27;20209;-72
2023/09/28 02:56:00;;;;;;;4.37;3.97;;;;;;;14.93;100.00;98234.34;5135828;27;20207;-72
2023/09/28 02:58:27;;;;;;;5.17;3.17;;;;;;;14.97;100.00;98238.94;5135266;27;20303;-72
2023/09/28 03:00:53;;;;;;;3.87;3.47;;;;;;;14.96;100.00;98237.34;5135659;27;20198;-72
2023/09/28 03:03:19;;;;;;;4.97;4.07;;;;;;;15.00;100.00;98237.66;5135304;27;20661;-72
2023/09/28 03:05:45;;;;;;;5.23;3.63;;;;;;;14.95;100.00;98234.91;5135463;27;20199;-72
2023/09/28 03:08:14;;;;;;;4.33;3.60;;;;;;;14.93;100.00;98220.97;5135197;27;20222;-72
2023/09/28 03:10:43;;;;;;;4.73;3.37;;;;;;;14.89;100.00;98234.03;5135583;27;20575;-72
2023/09/28 03:13:11;;;;;;;5.80;3.83;;;;;;;14.90;100.00;98238.31;5135512;27;20580;-72
2023/09/28 03:15:39;;;;;;;4.20;3.80;;;;;;;14.88;100.00;98248.44;5135561;27;20263;-71
2023/09/28 03:18:06;;;;;;;4.73;4.00;;;;;;;14.88;100.00;98250.31;5135177;27;20231;-72
2023/09/28 03:20:31;;;;;;;6.00;4.00;;;;;;;14.72;100.00;98251.91;5135276;27;20206;-73
2023/09/28 03:22:57;;;;;;;5.50;3.97;;;;;;;14.76;100.00;98236.19;5135181;27;20729;-73
2023/09/28 03:25:23;;;;;;;5.20;3.97;;;;;;;14.86;100.00;98231.81;5134936;27;20573;-72
2023/09/28 03:27:51;;;;;;;5.97;3.90;;;;;;;14.80;100.00;98240.00;5135162;27;20219;-72
2023/09/28 03:30:19;;;;;;;5.53;4.23;;;;;;;14.83;100.00;98242.19;5135079;27;20209;-72
2023/09/28 03:32:46;;;;;;;5.93;4.00;;;;;;;14.83;100.00;98242.19;5134626;27;20306;-72
2023/09/28 03:35:12;;;;;;;7.17;3.93;;;;;;;14.83;100.00;98245.66;5134916;27;20198;-73
2023/09/28 03:37:40;;;;;;;4.40;4.00;;;;;;;14.85;100.00;98248.94;5134658;27;20275;-72
2023/09/28 03:40:10;;;;;;;5.73;4.17;;;;;;;14.85;100.00;98264.16;5134085;27;20559;-72
2023/09/28 03:42:48;;;;;;;4.87;3.70;;;;;;;14.79;100.00;98260.59;5134667;27;20210;-71
2023/09/28 03:45:19;;;;;;;6.23;3.60;;;;;;;14.71;100.00;98252.16;5134311;27;20612;-71
2023/09/28 03:47:46;;;;;;;5.63;4.00;;;;;;;14.82;100.00;98243.22;5134597;27;20224;-71
2023/09/28 03:50:13;;;;;;;6.27;4.30;;;;;;;14.70;100.00;98245.97;5134763;27;20214;-71
2023/09/28 03:52:41;;;;;;;6.30;4.10;;;;;;;14.78;100.00;98248.25;5134161;27;20206;-71
2023/09/28 03:55:12;;;;;;;4.43;4.00;;;;;;;14.75;100.00;98240.69;5134353;27;20214;-71
2023/09/28 03:57:39;;;;;;;5.03;4.17;;;;;;;14.79;100.00;98239.16;5134202;27;20230;-71
2023/09/28 04:00:08;;;;;;;5.20;4.20;;;;;;;14.84;100.00;98244.59;5134544;27;20202;-72
2023/09/28 04:02:34;;;;;;;5.17;4.30;;;;;;;14.78;100.00;98240.22;5134391;27;20210;-72
2023/09/28 04:05:00;;;;;;;4.40;4.00;;;;;;;14.80;100.00;98254.19;5134354;27;20213;-72
2023/09/28 04:07:27;;;;;;;4.87;4.10;;;;;;;14.77;100.00;98251.16;5134388;27;20215;-73
2023/09/28 04:09:54;;;;;;;6.33;4.40;;;;;;;14.82;100.00;98256.63;5134520;27;20206;-73
2023/09/28 04:12:20;;;;;;;5.17;4.33;;;;;;;14.86;100.00;98263.94;5134476;27;20202;-73
2023/09/28 04:14:46;;;;;;;4.63;4.10;;;;;;;14.83;100.00;98260.94;5134314;28;20210;-71
2023/09/28 04:17:13;;;;;;;6.00;4.30;;;;;;;14.81;100.00;98265.69;5133599;28;20218;-71
2023/09/28 04:19:39;;;;;;;5.37;4.60;;;;;;;14.82;100.00;98267.31;5134404;28;20199;-73
2023/09/28 04:22:05;;;;;;;4.47;4.07;;;;;;;14.80;100.00;98270.25;5133813;28;20301;-73
2023/09/28 04:24:32;;;;;;;4.77;3.50;;;;;;;14.74;100.00;98268.53;5134042;28;20676;-74
2023/09/28 04:26:58;;;;;;;5.63;4.10;;;;;;;14.75;100.00;98270.13;5133876;28;20584;-74
2023/09/28 04:29:25;;;;;;;5.30;4.00;;;;;;;14.76;100.00;98277.16;5134238;28;20237;-73
2023/09/28 04:31:52;;;;;;;7.67;3.90;;;;;;;14.60;100.00;98282.47;5133804;28;20221;-72
2023/09/28 04:34:19;;;;;;;4.30;3.90;;;;;;;14.60;100.00;98282.47;5134491;28;20206;-72
2023/09/28 04:36:46;;;;;;;5.57;4.20;;;;;;;14.50;100.00;98269.69;5134189;28;20198;-72
2023/09/28 04:39:13;;;;;;;6.73;3.97;;;;;;;14.62;100.00;98286.50;5134585;28;20233;-74
2023/09/28 04:41:40;;;;;;;6.10;4.47;;;;;;;14.61;100.00;98284.06;5134060;28;20202;-74
2023/09/28 04:44:07;;;;;;;4.23;3.83;;;;;;;14.58;100.00;98266.63;5133792;28;20202;-74
2023/09/28 04:46:34;;;;;;;4.87;4.40;;;;;;;14.61;100.00;98268.03;5133931;28;20203;-72
2023/09/28 04:49:00;;;;;;;4.73;4.13;;;;;;;14.58;100.00;98263.13;5133918;28;20215;-73
2023/09/28 04:51:27;;;;;;;4.17;3.77;;;;;;;14.72;100.00;98264.47;5134088;28;20203;-73
2023/09/28 04:53:53;;;;;;;4.53;3.80;;;;;;;14.72;100.00;98265.28;5133883;28;20669;-74
2023/09/28 04:56:20;;;;;;;5.00;3.97;;;;;;;14.72;100.00;98262.63;5135288;27;20210;-74
2023/09/28 04:58:46;;;;;;;6.93;4.07;;;;;;;14.81;100.00;98265.69;5138348;27;20237;-75
2023/09/28 05:01:13;;;;;;;6.00;4.63;;;;;;;14.82;100.00;98262.78;5137916;27;20203;-75
2023/09/28 05:03:39;;;;;;;6.47;4.37;;;;;;;14.77;100.00;98262.69;5137529;27;20202;-75
2023/09/28 05:06:06;;;;;;;4.73;4.33;;;;;;;14.81;100.00;98263.84;5137183;27;20207;-75
2023/09/28 05:08:32;;;;;;;5.07;4.53;;;;;;;14.90;100.00;98272.28;5137999;27;20563;-74
2023/09/28 05:10:58;;;;;;;5.33;4.33;;;;;;;14.90;100.00;98278.47;5137534;27;20213;-74
2023/09/28 05:13:29;;;;;;;6.37;4.70;;;;;;;14.84;100.00;98271.38;5137437;27;20209;-74
2023/09/28 05:15:55;;;;;;;9.67;4.70;;;;;;;14.82;100.00;98273.50;5136988;27;20186;-74
2023/09/28 05:18:21;;;;;;;9.70;4.53;;;;;;;14.82;100.00;98267.31;5137296;27;20237;-75
2023/09/28 05:20:48;;;;;;;7.13;4.37;;;;;;;14.88;100.00;98274.41;5137473;27;20576;-74
2023/09/28 05:23:15;;;;;;;6.93;4.00;;;;;;;14.92;100.00;98287.06;5137153;27;20203;-73
2023/09/28 05:25:41;;;;;;;4.90;4.33;;;;;;;14.87;100.00;98292.31;5136812;27;20700;-73
2023/09/28 05:28:08;;;;;;;6.00;4.70;;;;;;;14.90;100.00;98286.50;5136946;27;20214;-73
2023/09/28 05:30:34;;;;;;;8.03;4.10;;;;;;;14.88;100.00;98291.25;5136899;27;20203;-73
2023/09/28 05:33:01;;;;;;;5.83;4.57;;;;;;;14.86;100.00;98292.56;5136825;27;20195;-73
2023/09/28 05:35:27;;;;;;;7.27;4.47;;;;;;;15.03;100.00;98296.09;5136446;27;20206;-73
2023/09/28 05:37:54;;;;;;;6.60;4.43;;;;;;;14.82;100.00;98294.09;5136719;27;20232;-73
2023/09/28 05:40:21;;;;;;;6.83;4.40;;;;;;;14.82;100.00;98296.75;5136887;27;20572;-73
2023/09/28 05:42:47;;;;;;;5.07;4.50;;;;;;;14.83;100.00;98301.88;5136811;27;20285;-72
2023/09/28 05:45:13;;;;;;;4.77;4.37;;;;;;;14.83;100.00;98306.44;5136845;27;20210;-73
2023/09/28 05:47:40;;;;;;;5.03;4.53;;;;;;;14.92;100.00;98313.81;5136766;27;20214;-73
2023/09/28 05:50:07;;;;;;;6.30;4.33;;;;;;;14.96;100.00;98323.00;5136346;27;20298;-73
2023/09/28 05:52:33;;;;;;;6.83;4.70;;;;;;;14.95;100.00;98328.59;5136673;27;20209;-73
2023/09/28 05:55:00;;;;;;;5.50;4.47;;;;;;;14.96;100.00;98325.69;5136841;27;20207;-73
2023/09/28 05:57:28;;;;;;;4.67;4.00;;;;;;;15.07;100.00;98337.41;5136298;27;20218;-73
2023/09/28 05:59:54;;;;;;;6.67;4.70;;;;;;;14.99;100.00;98337.78;5136361;27;20260;-73
2023/09/28 06:02:21;;;;;;;8.00;4.87;;;;;;;14.94;100.00;98340.38;5136229;27;20213;-73
2023/09/28 06:04:47;;;;;;;7.73;5.07;;;;;;;14.90;100.00;98340.03;5136388;27;20210;-73
2023/09/28 06:07:14;;;;;;;5.97;5.03;;;;;;;14.99;100.00;98337.78;5135486;27;20266;-73
2023/09/28 06:09:43;;;;;;;9.00;5.13;;;;;;;15.02;100.00;98348.03;5136273;27;20198;-73
2023/09/28 06:12:10;;;;;;;7.17;5.07;;;;;;;15.09;100.00;98351.34;5135840;27;20583;-73
2023/09/28 06:14:36;;;;;;;8.60;4.87;;;;;;;15.13;100.00;98357.84;5136230;27;20209;-73
2023/09/28 06:17:02;;;;;;;8.73;5.60;;;;;;;15.14;100.00;98338.88;5136090;27;20203;-73
2023/09/28 06:19:29;;;;;;;8.70;5.30;;;;;;;15.06;100.00;98331.22;5136171;27;20233;-73
2023/09/28 06:21:55;;;;;;;6.27;4.80;;;;;;;15.11;100.00;98333.97;5135904;27;20205;-73
2023/09/28 06:24:22;;;;;;;7.23;4.90;;;;;;;15.16;100.00;98333.28;5135814;27;20293;-73
2023/09/28 06:26:49;;;;;;;6.60;4.93;;;;;;;15.13;100.00;98323.84;5135964;27;20199;-73
2023/09/28 06:29:16;;;;;;;6.73;5.27;;;;;;;15.25;100.00;98329.94;5136062;27;20225;-73
2023/09/28 06:31:42;;;;;;;7.00;5.07;;;;;;;15.20;100.00;98323.72;5135726;27;20226;-73
2023/09/28 06:34:09;;;;;;;5.70;4.67;;;;;;;15.18;100.00;98323.94;5135396;27;20577;-73
2023/09/28 06:36:35;;;;;;;6.63;4.43;;;;;;;15.09;100.00;98330.75;5135696;27;20199;-73
2023/09/28 06:39:03;;;;;;;4.90;4.43;;;;;;;15.15;100.00;98334.34;5135834;27;20256;-73
2023/09/28 06:41:30;;;;;;;5.70;4.60;;;;;;;15.20;100.00;98339.78;5135957;27;20297;-73
2023/09/28 06:43:57;;;;;;;5.83;4.30;;;;;;;15.31;100.00;98354.97;5135233;27;20677;-73
2023/09/28 06:46:23;;;;;;;6.60;4.33;;;;;;;15.32;100.00;98346.69;5135538;27;20293;-73
2023/09/28 06:48:50;;;;;;;5.60;4.50;;;;;;;15.46;100.00;98345.34;5135487;27;20225;-73
2023/09/28 06:51:19;;;;;;;7.03;4.73;;;;;;;15.42;100.00;98362.97;5136368;27;20202;-73
2023/09/28 06:53:45;;;;;;;4.87;4.40;;;;;;;15.54;100.00;98360.22;5135729;27;20575;-73
2023/09/28 06:56:12;;;;;;;4.90;4.40;;;;;;;15.63;100.00;98358.75;5135239;27;20206;-73
2023/09/28 06:58:39;;;;;;;8.00;4.43;;;;;;;15.66;100.00;98364.47;5135456;27;20636;-73
2023/09/28 07:01:05;;;;;;;5.87;4.27;;;;;;;15.76;100.00;98353.91;5135527;27;20202;-73
2023/09/28 07:03:32;;;;;;;5.37;4.20;;;;;;;15.83;100.00;98359.09;5135312;27;20209;-73
2023/09/28 07:05:58;;;;;;;4.87;4.33;;;;;;;15.83;100.00;98364.44;5136071;27;20210;-73
2023/09/28 07:08:25;;;;;;;7.20;4.50;;;;;;;15.88;100.00;98362.66;5135613;27;20279;-73
2023/09/28 07:10:51;;;;;;;4.70;4.20;;;;;;;15.98;100.00;98367.34;5135671;27;20669;-73
2023/09/28 07:13:17;;;;;;;5.17;4.47;;;;;;;16.04;100.00;98359.16;5135248;27;20211;-73
2023/09/28 07:15:44;;;;;;;5.30;4.13;;;;;;;16.21;100.00;98361.78;5135723;27;20213;-73
2023/09/28 07:18:10;;;;;;;7.77;4.57;;;;;;;16.36;100.00;98362.81;5135353;27;20318;-73
2023/09/28 07:20:37;;;;;;;8.17;4.20;;;;;;;16.56;100.00;98359.63;5135302;27;20202;-73
2023/09/28 07:23:03;;;;;;;5.77;4.20;;;;;;;16.39;100.00;98359.66;5134950;27;20206;-73
2023/09/28 07:25:30;;;;;;;6.60;4.17;;;;;;;16.39;100.00;98364.19;5134882;27;20297;-73
2023/09/28 07:27:57;;;;;;;4.57;4.17;;;;;;;16.32;100.00;98368.91;5134791;27;20226;-73
2023/09/28 07:30:23;;;;;;;6.47;4.57;;;;;;;16.32;100.00;98364.38;5135206;27;20206;-73
2023/09/28 07:32:50;;;;;;;9.87;4.73;;;;;;;16.28;100.00;98368.59;5135200;27;20214;-73
2023/09/28 07:35:18;;;;;;;5.77;4.63;;;;;;;16.34;100.00;98372.19;5135464;27;20215;-73
2023/09/28 07:37:44;;;;;;;7.67;4.90;;;;;;;16.37;100.00;98369.00;5134830;27;20230;-73
2023/09/28 07:40:15;;;;;;;7.20;5.00;;;;;;;16.35;100.00;98377.31;5134526;27;20637;-73
2023/09/28 07:42:43;;;;;;;8.97;4.50;;;;;;;16.43;100.00;98373.41;5134874;27;20222;-73
2023/09/28 07:45:11;;;;;;;8.40;4.93;;;;;;;16.57;100.00;98388.09;5134479;27;20199;-73
2023/09/28 07:47:38;;;;;;;9.63;5.10;;;;;;;16.66;100.00;98390.09;5134564;27;20222;-73
2023/09/28 07:50:05;;;;;;;6.90;5.00;;;;;;;16.85;100.00;98391.41;5134263;27;20248;-73
2023/09/28 07:52:32;;;;;;;4.60;4.17;;;;;;;16.88;100.00;98395.47;5134568;27;20202;-73
2023/09/28 07:54:58;;;;;;;4.90;4.40;;;;;;;17.00;100.00;98394.25;5134122;27;20198;-73
2023/09/28 07:57:25;;;;;;;9.47;4.60;;;;;;;17.12;100.00;98403.00;5134257;27;20224;-73
2023/09/28 07:59:54;;;;;;;8.27;4.73;;;;;;;17.15;100.00;98407.06;5134360;27;20233;-73
2023/09/28 08:02:20;;;;;;;4.97;4.43;;;;;;;17.24;100.00;98400.97;5134309;27;20206;-73
2023/09/28 08:04:48;;;;;;;8.23;4.70;;;;;;;17.38;100.00;98396.81;5133933;27;20686;-73
2023/09/28 08:07:15;;;;;;;8.83;4.67;;;;;;;17.37;100.00;98389.81;5134245;27;20259;-73
2023/09/28 08:09:42;;;;;;;5.70;4.53;;;;;;;17.38;100.00;98391.44;5134086;27;20661;-73
2023/09/28 08:12:09;;;;;;;5.87;4.40;;;;;;;17.40;100.00;98392.03;5133973;27;20255;-73
2023/09/28 08:14:35;;;;;;;8.37;4.70;;;;;;;17.45;100.00;98385.88;5134268;27;20202;-73
2023/09/28 08:17:02;;;;;;;8.10;4.50;;;;;;;17.56;100.00;98384.94;5134300;28;20203;-73
2023/09/28 08:19:29;;;;;;;6.40;4.70;;;;;;;17.78;100.00;98388.34;5134096;28;20218;-73
2023/09/28 08:21:55;;;;;;;6.30;4.53;;;;;;;17.78;100.00;98391.84;5134158;28;20210;-73
2023/09/28 08:24:22;;;;;;;5.93;4.07;;;;;;;17.77;100.00;98389.38;5134165;28;20198;-73
2023/09/28 08:26:48;;;;;;;7.43;4.80;;;;;;;17.98;100.00;98392.00;5133852;28;20687;-73
2023/09/28 08:29:15;;;;;;;5.70;4.30;;;;;;;18.17;100.00;98387.00;5134003;28;20248;-73
2023/09/28 08:31:41;;;;;;;7.13;4.60;;;;;;;18.00;100.00;98387.16;5135953;27;20669;-73
2023/09/28 08:34:08;;;;;;;9.80;4.67;;;;;;;17.95;100.00;98387.13;5138313;27;20202;-73
2023/09/28 08:36:34;;;;;;;6.73;4.67;;;;;;;18.01;100.00;98390.69;5138361;27;20251;-73
2023/09/28 08:39:01;;;;;;;7.33;4.87;;;;;;;18.17;100.00;98403.16;5137929;27;20222;-73
2023/09/28 08:41:46;;;;;;;7.83;5.07;;;;;;;18.37;100.00;98403.34;5138271;27;20213;-73
2023/09/28 08:44:13;;;;;;;8.77;5.17;;;;;;;18.25;100.00;98400.81;5137787;27;20660;-73
2023/09/28 08:46:40;;;;;;;9.37;5.73;;;;;;;18.29;100.00;98398.41;5138046;27;20208;-73
2023/09/28 08:49:10;;;;;;;6.83;4.77;;;;;;;18.59;100.00;98394.03;5138019;27;20229;-73
2023/09/28 08:51:39;;;;;;;8.03;4.97;;;;;;;18.62;100.00;98406.16;5137712;27;20630;-73
2023/09/28 08:54:06;;;;;;;9.77;4.60;;;;;;;18.85;100.00;98403.03;5138003;27;20202;-73
2023/09/28 08:56:35;;;;;;;8.47;4.80;;;;;;;18.94;100.00;98410.34;5137666;27;20202;-71
2023/09/28 08:59:02;;;;;;;7.50;4.50;;;;;;;18.92;100.00;98407.09;5137803;27;20222;-72
2023/09/28 09:01:30;;;;;;;8.20;4.57;;;;;;;19.14;100.00;98407.72;5137934;27;20205;-72
2023/09/28 09:03:57;;;;;;;10.07;4.73;;;;;;;19.33;100.00;98402.69;5137647;27;20230;-72
2023/09/28 09:06:25;;;;;;;8.47;4.60;;;;;;;19.31;100.00;98397.56;5137366;27;20680;-72
2023/09/28 09:08:54;;;;;;;7.03;4.33;;;;;;;19.64;98.49;98402.47;5137131;27;20237;-72
2023/09/28 09:11:22;;;;;;;9.87;4.63;;;;;;;19.85;97.64;98402.50;5137738;27;20203;-73
2023/09/28 09:13:49;;;;;;;8.87;4.50;;;;;;;20.02;97.49;98403.84;5137536;27;20206;-73
2023/09/28 09:16:16;;;;;;;6.57;4.37;;;;;;;20.24;95.64;98401.69;5137492;27;20255;-73
2023/09/28 09:18:43;;;;;;;7.10;4.50;;;;;;;20.15;97.42;98397.91;5137244;27;20226;-73
2023/09/28 09:21:10;;;;;;;8.50;4.83;;;;;;;20.38;95.66;98399.22;5137050;27;20203;-73
2023/09/28 09:23:36;;;;;;;9.80;4.13;;;;;;;20.56;92.99;98399.47;5137259;27;20621;-72
2023/09/28 09:26:03;;;;;;;6.93;4.10;;;;;;;20.68;93.64;98402.69;5136850;27;20203;-71
2023/09/28 09:28:33;;;;;;;8.40;4.17;;;;;;;20.55;94.18;98395.16;5137045;27;20261;-72
2023/09/28 09:31:00;;;;;;;8.50;4.30;;;;;;;20.93;94.03;98402.59;5137152;27;20584;-72
2023/09/28 09:33:28;;;;;;;10.10;4.50;;;;;;;20.95;93.51;98402.34;5137218;27;20187;-72
2023/09/28 09:35:55;;;;;;;7.03;4.60;;;;;;;21.02;92.79;98400.94;5137195;27;20202;-72
2023/09/28 09:38:28;;;;;;;6.30;3.90;;;;;;;20.91;91.48;98402.09;5136445;27;20701;-72
2023/09/28 09:41:02;;;;;;;7.30;4.23;;;;;;;21.05;92.89;98396.88;5137016;27;20198;-72
2023/09/28 09:43:34;;;;;;;7.33;4.63;;;;;;;21.50;89.47;98399.34;5136471;27;20206;-72
2023/09/28 09:46:03;;;;;;;6.80;3.70;;;;;;;21.65;88.66;98391.09;5136611;27;20648;-72
2023/09/28 09:48:37;;;;;;;7.40;4.17;;;;;;;21.71;88.69;98390.03;5136517;27;20230;-72
2023/09/28 09:51:04;;;;;;;5.77;3.57;;;;;;;21.78;88.68;98398.63;5102590;27;20191;-72
2023/09/28 09:53:34;;;;;;;6.83;4.27;;;;;;;21.87;86.59;98396.94;5136986;27;20210;-72
2023/09/28 09:56:04;;;;;;;7.55;3.72;;;;;;;22.09;86.40;98405.41;5136571;27;20203;-73
2023/09/28 09:58:35;;;;;;;7.50;4.23;;;;;;;22.19;86.08;98400.72;5136411;27;20275;-72
2023/09/28 10:01:04;;;;;;;6.78;4.50;;;;;;;21.94;86.48;98402.84;5136702;27;20195;-71
2023/09/28 10:03:32;;;;;;;5.03;4.40;;;;;;;22.16;85.73;98405.91;5118201;27;20206;-71
2023/09/28 10:06:01;;;;;;;8.48;4.18;;;;;;;22.31;85.78;98401.16;5136208;27;20209;-71
2023/09/28 10:08:33;;;;;;;8.20;4.30;;;;;;;22.27;83.66;98393.88;5118151;27;20219;-71
2023/09/28 10:11:01;;;;;;;7.88;3.70;;;;;;;22.27;78.57;98391.16;5135967;27;20629;-71
2023/09/28 10:13:31;;;;;;;6.68;4.00;;;;;;;22.21;76.61;98386.91;5136254;27;20247;-71
2023/09/28 10:16:01;;;;;;;4.97;4.20;;;;;;;22.34;74.06;98395.16;5136465;27;20198;-73
2023/09/28 10:18:29;;;;;;;6.07;4.22;;;;;;;22.66;73.79;98391.88;5135891;27;20233;-71
2023/09/28 10:20:59;;;;;;;12.18;4.55;;;;;;;22.59;76.03;98391.41;5136431;27;20542;-73
2023/09/28 10:23:27;;;;;;;6.00;3.88;;;;;;;22.78;71.58;98389.56;5136118;27;20213;-74
2023/09/28 10:25:57;;;;;;;6.30;3.88;;;;;;;22.80;69.88;98392.81;5136244;27;20212;-72
2023/09/28 10:28:24;;;;;;;6.28;4.07;;;;;;;22.72;70.69;98393.44;5135796;27;20226;-72
2023/09/28 10:31:23;;;;;;;10.45;4.22;;;;;;;22.99;69.70;98389.03;5135858;27;20217;-73
2023/09/28 10:34:03;;;;;;;7.18;3.50;;;;;;;23.14;69.86;98386.13;5079498;27;20638;-73
2023/09/28 10:36:30;;;;;;;6.25;4.18;;;;;;;23.27;67.36;98387.34;5135703;27;20253;-73
2023/09/28 10:39:15;;;;;;;5.72;3.67;;;;;;;23.37;66.07;98381.75;5135646;27;20584;-72
2023/09/28 10:41:53;;;;;;;7.15;4.07;;;;;;;23.50;66.84;98378.31;5135494;27;20735;-72
2023/09/28 10:44:21;;;;;;;8.40;4.10;;;;;;;23.59;66.12;98382.78;5135098;27;20262;-73
2023/09/28 10:46:50;;;;;;;7.05;3.90;;;;;;;23.29;65.83;98366.16;5135512;27;20278;-74
2023/09/28 10:49:27;;;;;;;5.57;4.05;;;;;;;23.25;63.45;98373.25;5135688;27;20261;-74
2023/09/28 10:51:55;;;;;;;5.82;3.50;;;;;;;23.67;61.78;98376.72;5135123;27;20202;-73
2023/09/28 10:54:24;;;;;;;6.90;3.55;;;;;;;23.81;58.60;98368.59;5135067;27;20254;-73
2023/09/28 10:56:51;;;;;;;6.60;3.88;;;;;;;23.58;58.58;98372.22;5135435;27;20202;-73
2023/09/28 10:59:21;;;;;;;4.60;3.83;;;;;;;23.53;57.87;98366.88;5135231;27;20392;-72
2023/09/28 11:01:49;;;;;;;8.10;3.80;;;;;;;23.77;56.66;98364.88;5135697;27;20580;-71
2023/09/28 11:04:17;;;;;;;4.85;3.53;;;;;;;23.71;56.57;98360.63;5135415;27;20210;-71
2023/09/28 11:06:44;;;;;;;5.68;3.65;;;;;;;23.88;52.64;98356.25;5135114;27;20576;-73
2023/09/28 11:09:12;;;;;;;4.47;3.10;;;;;;;23.91;53.22;98353.00;5135439;27;20219;-71
2023/09/28 11:11:39;;;;;;;6.45;3.35;;;;;;;23.78;51.71;98353.72;5135230;27;20206;-71
2023/09/28 11:14:06;;;;;;;4.57;3.50;;;;;;;23.83;54.46;98353.63;5135241;27;20202;-72
2023/09/28 11:16:38;;;;;;;7.05;3.60;;;;;;;23.63;54.48;98364.81;5134920;27;20618;-72
2023/09/28 11:19:05;;;;;;;3.53;3.13;;;;;;;23.25;55.94;98357.00;5135091;27;20226;-72
2023/09/28 11:21:32;;;;;;;6.55;3.53;;;;;;;23.41;56.78;98367.31;5135189;27;20206;-72
2023/09/28 11:23:59;;;;;;;4.20;3.00;;;;;;;23.31;51.75;98366.66;5134752;27;20202;-72
2023/09/28 11:26:25;;;;;;;4.32;3.10;;;;;;;23.29;52.32;98361.53;5135095;27;20205;-72
2023/09/28 11:28:54;;;;;;;4.55;2.97;;;;;;;23.34;50.86;98366.88;5134736;27;20222;-72